Isle of South Uist, United Kingdom
Current Conditions -  °F | °C
As of 2:20 PM on Friday 28 Nov 2014 (Local Time) from EGPL Reporting Station
Few Clouds Few Clouds  
Wind Chill: 52°   Ceiling: Unl
Heat Index: 52°   Visibility: 6mi
Dew Point: 45°   Wind: 3mph
Humidity: 76%   Direction: NA
Pressure: 29.77"   Gusts: NA
Location:  57.08°N, 7.3°W
Report Text: EGPL 281420Z VRB03KT 9999 FEW018 11/07 Q1008
Loading
Personal Weather Stations






























Interactive Weather Map New forecast layout! Learn more

10-Day Weather Forecast

Advertisements
Track Severe Weather on mobile